Adriatic Sea — WDB5553 — position and weather

sailwx.info

Track history (hours):
 
Tides and Currents Weather Stations Pressure Air Temp Water Temp Dewpoint Dewpoint Depression Visibility Wind Speed Wind Dir Waves Ship Positions

Adriatic Sea

Owner: Kirby Offshore Marine, LLC, Seattle, WA. More information available from US FCC via Universal Licensing System and Coast Guard Vessel Documentation Center.

Last reported at 2014-Oct-30 15:32 UTC. Time now 2014-Oct-30 15:54 UTC.
Position N 48°31' W 122°36'.

Length 42 m; draft 16 m.

Type: Tug. MMSI: 366910890.

Date/timePositionNaut miles runAvg speedWind from/ knotsBaromVisibWave heightAir tempDewpointWater temp
2014-Oct-30 15:32N 48°31' W 122°36'0 0.0
2014-Oct-30 14:32N 48°31' W 122°36'0 0.0
2014-Oct-30 13:26N 48°31' W 122°36'0 0.1
2014-Oct-30 12:32N 48°31' W 122°36'0 0.1
2014-Oct-30 11:32N 48°31' W 122°36'0 0.0
2014-Oct-30 10:32N 48°31' W 122°36'0 0.0
2014-Oct-30 09:32N 48°31' W 122°36'0 0.0
2014-Oct-30 08:32N 48°31' W 122°36'0 0.0
2014-Oct-30 07:32N 48°31' W 122°36'0 0.0
2014-Oct-30 06:26N 48°31' W 122°36'0 0.0
2014-Oct-30 05:32N 48°31' W 122°36'0 0.0
2014-Oct-30 04:31N 48°31' W 122°36'0 0.1
2014-Oct-30 03:31N 48°31' W 122°36'1 1.0
2014-Oct-30 02:34N 48°31' W 122°37'0 0.0
2014-Oct-30 01:34N 48°31' W 122°37'0 0.0
2014-Oct-30 00:33N 48°31' W 122°37'0 0.0
2014-Oct-29 23:34N 48°31' W 122°37'0 0.0
2014-Oct-29 22:34N 48°31' W 122°37'0 0.0
2014-Oct-29 21:34N 48°31' W 122°37'0 0.0
2014-Oct-29 20:34N 48°31' W 122°37'0 0.0
2014-Oct-29 19:33N 48°31' W 122°37'0 0.0
2014-Oct-29 18:34N 48°31' W 122°37'0 0.0
2014-Oct-29 17:34N 48°31' W 122°37'0 0.0
2014-Oct-29 16:34N 48°31' W 122°37'0 0.0
2014-Oct-29 15:34N 48°31' W 122°37'0 0.0
2014-Oct-29 14:33N 48°31' W 122°37'0 0.0
2014-Oct-29 13:34N 48°31' W 122°37'0 0.0
2014-Oct-29 12:34N 48°31' W 122°37'0 0.0
2014-Oct-29 11:34N 48°31' W 122°37'0 0.0
2014-Oct-29 10:34N 48°31' W 122°37'0 0.0
2014-Oct-29 09:34N 48°31' W 122°37'0 0.0
2014-Oct-29 08:33N 48°31' W 122°37'0 0.0
2014-Oct-29 07:34N 48°31' W 122°37'0 0.0
2014-Oct-29 06:34N 48°31' W 122°37'0 0.0
2014-Oct-29 05:34N 48°31' W 122°37'0 0.0
2014-Oct-29 04:34N 48°31' W 122°37'0 0.0
2014-Oct-29 03:34N 48°31' W 122°37'0 0.0
2014-Oct-29 02:34N 48°31' W 122°37'0 0.0
2014-Oct-29 01:34N 48°31' W 122°37'0 0.0
2014-Oct-29 00:34N 48°31' W 122°37'0 0.0
2014-Oct-28 23:34N 48°31' W 122°37'0 0.0
2014-Oct-28 22:34N 48°31' W 122°37'0 0.0
2014-Oct-28 21:34N 48°31' W 122°37'0 0.0
2014-Oct-28 20:33N 48°31' W 122°37'0 0.0
2014-Oct-28 19:33N 48°31' W 122°37'0 0.0
2014-Oct-28 18:34N 48°31' W 122°37'0 0.0
2014-Oct-28 17:34N 48°31' W 122°37'0 0.0
2014-Oct-28 16:34N 48°31' W 122°37'0 0.0
2014-Oct-28 15:34N 48°31' W 122°37'0 0.0
2014-Oct-28 14:34N 48°31' W 122°37'0 0.0
2014-Oct-28 13:33N 48°31' W 122°37'0 0.0
2014-Oct-28 12:34N 48°31' W 122°37'0 0.0
2014-Oct-28 11:33N 48°31' W 122°37'2 1.5
2014-Oct-28 10:34N 48°31' W 122°39'5 4.7
2014-Oct-28 09:34N 48°28' W 122°44'4 4.2
2014-Oct-28 08:34N 48°24' W 122°48'3 3.2
2014-Oct-28 07:34N 48°22' W 122°51'4 3.7
2014-Oct-28 06:34N 48°20' W 122°56'4 4.4
2014-Oct-28 05:34N 48°18' W 123°02'4 4.1
2014-Oct-28 04:33N 48°16' W 123°07'5 4.5
2014-Oct-28 03:32N 48°14' W 123°13'5 5.3
2014-Oct-28 02:32N 48°12' W 123°21'14 6.8
2014-Oct-28 00:28N 48°12' W 123°42'6 6.9
2014-Oct-27 23:32N 48°12' W 123°52'8 8.6
2014-Oct-27 22:33N 48°15' W 124°04'9 8.8
2014-Oct-27 21:34N 48°19' W 124°16'8 8.1
2014-Oct-27 20:34N 48°22' W 124°27'7 7.4
2014-Oct-27 19:33N 48°25' W 124°37'8 7.9
2014-Oct-27 18:34N 48°26' W 124°48'86 7.2
2014-Oct-27 06:31N 46°60' W 124°53'2 7.3
2014-Oct-27 06:14N 46°58' W 124°51'5 7.1
2014-Oct-27 05:33N 46°54' W 124°48'7 7.0
2014-Oct-27 04:33N 46°48' W 124°44'7 7.0
2014-Oct-27 03:33N 46°42' W 124°39'7 7.2
2014-Oct-27 02:34N 46°35' W 124°34'7 7.3
2014-Oct-27 01:33N 46°29' W 124°29'7 7.5
2014-Oct-27 00:34N 46°22' W 124°24'7 7.3
2014-Oct-26 23:33N 46°16' W 124°18'3 7.3
2014-Oct-26 23:07N 46°14' W 124°14'4 6.6
2014-Oct-26 22:34N 46°13' W 124°09'1 6.4
2014-Oct-26 22:28N 46°13' W 124°08'5 5.9
2014-Oct-26 21:34N 46°15' W 124°01'1 6.2
2014-Oct-26 21:27N 46°15' W 124°00'5 5.8
2014-Oct-26 20:34N 46°11' W 123°55'5 5.0
2014-Oct-26 19:34N 46°12' W 123°48'2 5.1
2014-Oct-26 19:12N 46°13' W 123°45'3 5.2
2014-Oct-26 18:33N 46°15' W 123°41'6 6.1
2014-Oct-26 17:34N 46°16' W 123°32'5 5.7
2014-Oct-26 16:35N 46°13' W 123°25'0 7.1
2014-Oct-26 16:33N 46°13' W 123°25'0 7.8
2014-Oct-26 16:31N 46°12' W 123°26'6 6.4
2014-Oct-26 15:33N 46°09' W 123°19'7 7.4
2014-Oct-26 14:33N 46°11' W 123°09'7 7.0
2014-Oct-26 13:33N 46°08' W 122°60'7 6.5
2014-Oct-26 12:33N 46°03' W 122°53'6 5.9
2014-Oct-26 11:33N 45°58' W 122°49'6 6.2
2014-Oct-26 10:33N 45°52' W 122°47'6 6.0
2014-Oct-26 09:33N 45°46' W 122°46'6 6.2
2014-Oct-26 08:33N 45°40' W 122°46'4 4.4
2014-Oct-26 07:33N 45°35' W 122°46'0 0.1
2014-Oct-26 06:33N 45°35' W 122°46'0 0.0
2014-Oct-26 05:34N 45°35' W 122°46'0 0.0
2014-Oct-26 04:33N 45°35' W 122°46'0 0.0
2014-Oct-26 03:33N 45°35' W 122°46'0 0.0
2014-Oct-26 02:33N 45°35' W 122°46'0 0.0
2014-Oct-26 01:33N 45°35' W 122°46'0 0.0
2014-Oct-26 00:33N 45°35' W 122°46'0 0.0
2014-Oct-25 23:33N 45°35' W 122°46'0 0.0
2014-Oct-25 22:33N 45°35' W 122°46'0 0.0
2014-Oct-25 21:33N 45°35' W 122°46'2 2.2
2014-Oct-25 20:33N 45°34' W 122°44'0 0.0
2014-Oct-25 19:33N 45°34' W 122°44'29 1.5
2014-Oct-25 00:41N 46°02' W 122°53'1 6.8
2014-Oct-25 00:31N 46°04' W 122°53'13 6.9
2014-Oct-24 22:36N 46°11' W 123°08'1 7.3
2014-Oct-24 22:32N 46°11' W 123°09'11 5.3
2014-Oct-24 20:22N 46°12' W 123°26'1 7.1
2014-Oct-24 20:15N 46°13' W 123°26'4 6.3
2014-Oct-24 19:33N 46°16' W 123°30'7 6.9
2014-Oct-24 18:33N 46°15' W 123°40'3 7.1
2014-Oct-24 18:03N 46°13' W 123°45'4 7.2
2014-Oct-24 17:33N 46°12' W 123°49'1 6.9
2014-Oct-24 17:23N 46°12' W 123°51'5 6.3
2014-Oct-24 16:33N 46°13' W 123°58'5 4.8
2014-Oct-24 15:26N 46°15' W 124°06'4 4.5
2014-Oct-24 14:31N 46°13' W 124°11'4 4.4
2014-Oct-24 13:31N 46°14' W 124°17'116 4.4
2014-Oct-23 11:14N 48°04' W 125°09'4 4.7
2014-Oct-23 10:27N 48°07' W 125°07'4 4.6
2014-Oct-23 09:32N 48°11' W 125°04'4 4.3
2014-Oct-23 08:30N 48°16' W 125°02'4 4.3
2014-Oct-23 07:33N 48°19' W 124°59'4 4.4
2014-Oct-23 06:33N 48°23' W 124°57'4 4.2
2014-Oct-23 05:32N 48°26' W 124°52'6 5.8
2014-Oct-23 04:33N 48°26' W 124°44'8 7.6
2014-Oct-23 03:33N 48°23' W 124°33'8 7.8
2014-Oct-23 02:33N 48°20' W 124°23'7 7.4
2014-Oct-23 01:33N 48°17' W 124°12'7 6.6
2014-Oct-23 00:33N 48°14' W 124°03'5 5.5
2014-Oct-22 23:34N 48°12' W 123°56'6 5.6
2014-Oct-22 22:33N 48°11' W 123°47'6 6.1
2014-Oct-22 21:33N 48°11' W 123°38'5 5.3
2014-Oct-22 20:33N 48°11' W 123°30'5 5.5
2014-Oct-22 19:33N 48°08' W 123°23'3 2.0
2014-Oct-22 18:10N 48°08' W 123°27'0 0.1
2014-Oct-22 17:25N 48°08' W 123°27'0 0.0
2014-Oct-22 16:33N 48°08' W 123°27'0 0.0
2014-Oct-22 15:27N 48°08' W 123°27'0 0.0
2014-Oct-22 14:30N 48°08' W 123°27'0 0.0
2014-Oct-22 13:18N 48°08' W 123°27'0 0.0
2014-Oct-22 12:33N 48°08' W 123°27'0 0.0
2014-Oct-22 11:30N 48°08' W 123°27'0 0.1
2014-Oct-22 10:21N 48°08' W 123°27'0 0.0
2014-Oct-22 07:30N 48°08' W 123°27'0 0.0
2014-Oct-22 06:33N 48°08' W 123°27'0 0.1
2014-Oct-22 05:33N 48°08' W 123°27'0 0.0
2014-Oct-22 04:33N 48°08' W 123°27'0 0.0
2014-Oct-22 03:30N 48°08' W 123°27'0 0.0
2014-Oct-22 02:21N 48°08' W 123°27'0 0.1
2014-Oct-22 01:30N 48°08' W 123°27'0 0.0
2014-Oct-22 00:33N 48°08' W 123°27'0 0.0
2014-Oct-21 23:27N 48°08' W 123°27'0 0.0
2014-Oct-21 22:18N 48°08' W 123°27'0 0.1
2014-Oct-21 21:33N 48°08' W 123°27'0 0.0
2014-Oct-21 20:33N 48°08' W 123°27'0 0.0
2014-Oct-21 19:33N 48°08' W 123°27'0 0.1
2014-Oct-21 18:33N 48°08' W 123°27'0 0.1
2014-Oct-21 17:30N 48°08' W 123°27'0 0.0
2014-Oct-21 16:33N 48°08' W 123°27'0 0.0
2014-Oct-21 15:33N 48°08' W 123°27'0 0.0
2014-Oct-21 14:33N 48°08' W 123°27'0 0.0
2014-Oct-21 13:33N 48°08' W 123°27'0 0.0
2014-Oct-21 12:30N 48°08' W 123°27'0 0.0
2014-Oct-21 11:33N 48°08' W 123°27'0 0.1
2014-Oct-21 10:27N 48°08' W 123°27'0 0.0
2014-Oct-21 09:21N 48°08' W 123°27'0 0.1
2014-Oct-21 08:30N 48°08' W 123°27'0 0.0
2014-Oct-21 07:33N 48°08' W 123°27'0 0.0
2014-Oct-21 06:32N 48°08' W 123°27'0 0.0
2014-Oct-21 05:26N 48°08' W 123°27'0 0.1
2014-Oct-21 04:32N 48°08' W 123°27'0 0.0
2014-Oct-21 03:23N 48°08' W 123°27'0 0.0
2014-Oct-21 02:17N 48°08' W 123°27'0 0.1
2014-Oct-21 01:23N 48°08' W 123°27'0 0.1
2014-Oct-21 00:32N 48°08' W 123°27'0 0.0
2014-Oct-20 23:32N 48°08' W 123°27'0 0.0
2014-Oct-20 22:29N 48°08' W 123°27'0 0.1
2014-Oct-20 21:20N 48°08' W 123°27'0 0.1
2014-Oct-20 20:29N 48°08' W 123°27'0 0.0
2014-Oct-20 19:32N 48°08' W 123°27'0 0.1
2014-Oct-20 18:32N 48°08' W 123°27'0 0.0
2014-Oct-20 17:32N 48°08' W 123°27'0 0.0
2014-Oct-20 16:32N 48°08' W 123°27'0 0.0
2014-Oct-20 15:32N 48°08' W 123°27'  
Track history (hours):
 
Tides and Currents Weather Stations Pressure Air Temp Water Temp Dewpoint Dewpoint Depression Visibility Wind Speed Wind Dir Waves Ship Positions

Adriatic Sea

Owner: Kirby Offshore Marine, LLC, Seattle, WA. More information available from US FCC via Universal Licensing System and Coast Guard Vessel Documentation Center.

Last reported at 2014-Oct-30 15:32 UTC. Time now 2014-Oct-30 15:54 UTC.
Position N 48°31' W 122°36'.

Length 42 m; draft 16 m.

Type: Tug. MMSI: 366910890.

Date/timePositionNaut miles runAvg speedWind from/ knotsBaromVisibWave heightAir tempDewpointWater temp
2014-Oct-30 15:32N 48°31' W 122°36'0 0.0
2014-Oct-30 14:32N 48°31' W 122°36'0 0.0
2014-Oct-30 13:26N 48°31' W 122°36'0 0.1
2014-Oct-30 12:32N 48°31' W 122°36'0 0.1
2014-Oct-30 11:32N 48°31' W 122°36'0 0.0
2014-Oct-30 10:32N 48°31' W 122°36'0 0.0
2014-Oct-30 09:32N 48°31' W 122°36'0 0.0
2014-Oct-30 08:32N 48°31' W 122°36'0 0.0
2014-Oct-30 07:32N 48°31' W 122°36'0 0.0
2014-Oct-30 06:26N 48°31' W 122°36'0 0.0
2014-Oct-30 05:32N 48°31' W 122°36'0 0.0
2014-Oct-30 04:31N 48°31' W 122°36'0 0.1
2014-Oct-30 03:31N 48°31' W 122°36'1 1.0
2014-Oct-30 02:34N 48°31' W 122°37'0 0.0
2014-Oct-30 01:34N 48°31' W 122°37'0 0.0
2014-Oct-30 00:33N 48°31' W 122°37'0 0.0
2014-Oct-29 23:34N 48°31' W 122°37'0 0.0
2014-Oct-29 22:34N 48°31' W 122°37'0 0.0
2014-Oct-29 21:34N 48°31' W 122°37'0 0.0
2014-Oct-29 20:34N 48°31' W 122°37'0 0.0
2014-Oct-29 19:33N 48°31' W 122°37'0 0.0
2014-Oct-29 18:34N 48°31' W 122°37'0 0.0
2014-Oct-29 17:34N 48°31' W 122°37'0 0.0
2014-Oct-29 16:34N 48°31' W 122°37'0 0.0
2014-Oct-29 15:34N 48°31' W 122°37'0 0.0
2014-Oct-29 14:33N 48°31' W 122°37'0 0.0
2014-Oct-29 13:34N 48°31' W 122°37'0 0.0
2014-Oct-29 12:34N 48°31' W 122°37'0 0.0
2014-Oct-29 11:34N 48°31' W 122°37'0 0.0
2014-Oct-29 10:34N 48°31' W 122°37'0 0.0
2014-Oct-29 09:34N 48°31' W 122°37'0 0.0
2014-Oct-29 08:33N 48°31' W 122°37'0 0.0
2014-Oct-29 07:34N 48°31' W 122°37'0 0.0
2014-Oct-29 06:34N 48°31' W 122°37'0 0.0
2014-Oct-29 05:34N 48°31' W 122°37'0 0.0
2014-Oct-29 04:34N 48°31' W 122°37'0 0.0
2014-Oct-29 03:34N 48°31' W 122°37'0 0.0
2014-Oct-29 02:34N 48°31' W 122°37'0 0.0
2014-Oct-29 01:34N 48°31' W 122°37'0 0.0
2014-Oct-29 00:34N 48°31' W 122°37'0 0.0
2014-Oct-28 23:34N 48°31' W 122°37'0 0.0
2014-Oct-28 22:34N 48°31' W 122°37'0 0.0
2014-Oct-28 21:34N 48°31' W 122°37'0 0.0
2014-Oct-28 20:33N 48°31' W 122°37'0 0.0
2014-Oct-28 19:33N 48°31' W 122°37'0 0.0
2014-Oct-28 18:34N 48°31' W 122°37'0 0.0
2014-Oct-28 17:34N 48°31' W 122°37'0 0.0
2014-Oct-28 16:34N 48°31' W 122°37'0 0.0
2014-Oct-28 15:34N 48°31' W 122°37'0 0.0
2014-Oct-28 14:34N 48°31' W 122°37'0 0.0
2014-Oct-28 13:33N 48°31' W 122°37'0 0.0
2014-Oct-28 12:34N 48°31' W 122°37'0 0.0
2014-Oct-28 11:33N 48°31' W 122°37'2 1.5
2014-Oct-28 10:34N 48°31' W 122°39'5 4.7
2014-Oct-28 09:34N 48°28' W 122°44'4 4.2
2014-Oct-28 08:34N 48°24' W 122°48'3 3.2
2014-Oct-28 07:34N 48°22' W 122°51'4 3.7
2014-Oct-28 06:34N 48°20' W 122°56'4 4.4
2014-Oct-28 05:34N 48°18' W 123°02'4 4.1
2014-Oct-28 04:33N 48°16' W 123°07'5 4.5
2014-Oct-28 03:32N 48°14' W 123°13'5 5.3
2014-Oct-28 02:32N 48°12' W 123°21'14 6.8
2014-Oct-28 00:28N 48°12' W 123°42'6 6.9
2014-Oct-27 23:32N 48°12' W 123°52'8 8.6
2014-Oct-27 22:33N 48°15' W 124°04'9 8.8
2014-Oct-27 21:34N 48°19' W 124°16'8 8.1
2014-Oct-27 20:34N 48°22' W 124°27'7 7.4
2014-Oct-27 19:33N 48°25' W 124°37'8 7.9
2014-Oct-27 18:34N 48°26' W 124°48'86 7.2
2014-Oct-27 06:31N 46°60' W 124°53'2 7.3
2014-Oct-27 06:14N 46°58' W 124°51'5 7.1
2014-Oct-27 05:33N 46°54' W 124°48'7 7.0
2014-Oct-27 04:33N 46°48' W 124°44'7 7.0
2014-Oct-27 03:33N 46°42' W 124°39'7 7.2
2014-Oct-27 02:34N 46°35' W 124°34'7 7.3
2014-Oct-27 01:33N 46°29' W 124°29'7 7.5
2014-Oct-27 00:34N 46°22' W 124°24'7 7.3
2014-Oct-26 23:33N 46°16' W 124°18'3 7.3
2014-Oct-26 23:07N 46°14' W 124°14'4 6.6
2014-Oct-26 22:34N 46°13' W 124°09'1 6.4
2014-Oct-26 22:28N 46°13' W 124°08'5 5.9
2014-Oct-26 21:34N 46°15' W 124°01'1 6.2
2014-Oct-26 21:27N 46°15' W 124°00'5 5.8
2014-Oct-26 20:34N 46°11' W 123°55'5 5.0
2014-Oct-26 19:34N 46°12' W 123°48'2 5.1
2014-Oct-26 19:12N 46°13' W 123°45'3 5.2
2014-Oct-26 18:33N 46°15' W 123°41'6 6.1
2014-Oct-26 17:34N 46°16' W 123°32'5 5.7
2014-Oct-26 16:35N 46°13' W 123°25'0 7.1
2014-Oct-26 16:33N 46°13' W 123°25'0 7.8
2014-Oct-26 16:31N 46°12' W 123°26'6 6.4
2014-Oct-26 15:33N 46°09' W 123°19'7 7.4
2014-Oct-26 14:33N 46°11' W 123°09'7 7.0
2014-Oct-26 13:33N 46°08' W 122°60'7 6.5
2014-Oct-26 12:33N 46°03' W 122°53'6 5.9
2014-Oct-26 11:33N 45°58' W 122°49'6 6.2
2014-Oct-26 10:33N 45°52' W 122°47'6 6.0
2014-Oct-26 09:33N 45°46' W 122°46'6 6.2
2014-Oct-26 08:33N 45°40' W 122°46'4 4.4
2014-Oct-26 07:33N 45°35' W 122°46'0 0.1
2014-Oct-26 06:33N 45°35' W 122°46'0 0.0
2014-Oct-26 05:34N 45°35' W 122°46'0 0.0
2014-Oct-26 04:33N 45°35' W 122°46'0 0.0
2014-Oct-26 03:33N 45°35' W 122°46'0 0.0
2014-Oct-26 02:33N 45°35' W 122°46'0 0.0
2014-Oct-26 01:33N 45°35' W 122°46'0 0.0
2014-Oct-26 00:33N 45°35' W 122°46'0 0.0
2014-Oct-25 23:33N 45°35' W 122°46'0 0.0
2014-Oct-25 22:33N 45°35' W 122°46'0 0.0
2014-Oct-25 21:33N 45°35' W 122°46'2 2.2
2014-Oct-25 20:33N 45°34' W 122°44'0 0.0
2014-Oct-25 19:33N 45°34' W 122°44'29 1.5
2014-Oct-25 00:41N 46°02' W 122°53'1 6.8
2014-Oct-25 00:31N 46°04' W 122°53'13 6.9
2014-Oct-24 22:36N 46°11' W 123°08'1 7.3
2014-Oct-24 22:32N 46°11' W 123°09'11 5.3
2014-Oct-24 20:22N 46°12' W 123°26'1 7.1
2014-Oct-24 20:15N 46°13' W 123°26'4 6.3
2014-Oct-24 19:33N 46°16' W 123°30'7 6.9
2014-Oct-24 18:33N 46°15' W 123°40'3 7.1
2014-Oct-24 18:03N 46°13' W 123°45'4 7.2
2014-Oct-24 17:33N 46°12' W 123°49'1 6.9
2014-Oct-24 17:23N 46°12' W 123°51'5 6.3
2014-Oct-24 16:33N 46°13' W 123°58'5 4.8
2014-Oct-24 15:26N 46°15' W 124°06'4 4.5
2014-Oct-24 14:31N 46°13' W 124°11'4 4.4
2014-Oct-24 13:31N 46°14' W 124°17'116 4.4
2014-Oct-23 11:14N 48°04' W 125°09'4 4.7
2014-Oct-23 10:27N 48°07' W 125°07'4 4.6
2014-Oct-23 09:32N 48°11' W 125°04'4 4.3
2014-Oct-23 08:30N 48°16' W 125°02'4 4.3
2014-Oct-23 07:33N 48°19' W 124°59'4 4.4
2014-Oct-23 06:33N 48°23' W 124°57'4 4.2
2014-Oct-23 05:32N 48°26' W 124°52'6 5.8
2014-Oct-23 04:33N 48°26' W 124°44'8 7.6
2014-Oct-23 03:33N 48°23' W 124°33'8 7.8
2014-Oct-23 02:33N 48°20' W 124°23'7 7.4
2014-Oct-23 01:33N 48°17' W 124°12'7 6.6
2014-Oct-23 00:33N 48°14' W 124°03'5 5.5
2014-Oct-22 23:34N 48°12' W 123°56'6 5.6
2014-Oct-22 22:33N 48°11' W 123°47'6 6.1
2014-Oct-22 21:33N 48°11' W 123°38'5 5.3
2014-Oct-22 20:33N 48°11' W 123°30'5 5.5
2014-Oct-22 19:33N 48°08' W 123°23'3 2.0
2014-Oct-22 18:10N 48°08' W 123°27'0 0.1
2014-Oct-22 17:25N 48°08' W 123°27'0 0.0
2014-Oct-22 16:33N 48°08' W 123°27'0 0.0
2014-Oct-22 15:27N 48°08' W 123°27'0 0.0
2014-Oct-22 14:30N 48°08' W 123°27'0 0.0
2014-Oct-22 13:18N 48°08' W 123°27'0 0.0
2014-Oct-22 12:33N 48°08' W 123°27'0 0.0
2014-Oct-22 11:30N 48°08' W 123°27'0 0.1
2014-Oct-22 10:21N 48°08' W 123°27'0 0.0
2014-Oct-22 07:30N 48°08' W 123°27'0 0.0
2014-Oct-22 06:33N 48°08' W 123°27'0 0.1
2014-Oct-22 05:33N 48°08' W 123°27'0 0.0
2014-Oct-22 04:33N 48°08' W 123°27'0 0.0
2014-Oct-22 03:30N 48°08' W 123°27'0 0.0
2014-Oct-22 02:21N 48°08' W 123°27'0 0.1
2014-Oct-22 01:30N 48°08' W 123°27'0 0.0
2014-Oct-22 00:33N 48°08' W 123°27'0 0.0
2014-Oct-21 23:27N 48°08' W 123°27'0 0.0
2014-Oct-21 22:18N 48°08' W 123°27'0 0.1
2014-Oct-21 21:33N 48°08' W 123°27'0 0.0
2014-Oct-21 20:33N 48°08' W 123°27'0 0.0
2014-Oct-21 19:33N 48°08' W 123°27'0 0.1
2014-Oct-21 18:33N 48°08' W 123°27'0 0.1
2014-Oct-21 17:30N 48°08' W 123°27'0 0.0
2014-Oct-21 16:33N 48°08' W 123°27'0 0.0
2014-Oct-21 15:33N 48°08' W 123°27'0 0.0
2014-Oct-21 14:33N 48°08' W 123°27'0 0.0
2014-Oct-21 13:33N 48°08' W 123°27'0 0.0
2014-Oct-21 12:30N 48°08' W 123°27'0 0.0
2014-Oct-21 11:33N 48°08' W 123°27'0 0.1
2014-Oct-21 10:27N 48°08' W 123°27'0 0.0
2014-Oct-21 09:21N 48°08' W 123°27'0 0.1
2014-Oct-21 08:30N 48°08' W 123°27'0 0.0
2014-Oct-21 07:33N 48°08' W 123°27'0 0.0
2014-Oct-21 06:32N 48°08' W 123°27'0 0.0
2014-Oct-21 05:26N 48°08' W 123°27'0 0.1
2014-Oct-21 04:32N 48°08' W 123°27'0 0.0
2014-Oct-21 03:23N 48°08' W 123°27'0 0.0
2014-Oct-21 02:17N 48°08' W 123°27'0 0.1
2014-Oct-21 01:23N 48°08' W 123°27'0 0.1
2014-Oct-21 00:32N 48°08' W 123°27'0 0.0
2014-Oct-20 23:32N 48°08' W 123°27'0 0.0
2014-Oct-20 22:29N 48°08' W 123°27'0 0.1
2014-Oct-20 21:20N 48°08' W 123°27'0 0.1
2014-Oct-20 20:29N 48°08' W 123°27'0 0.0
2014-Oct-20 19:32N 48°08' W 123°27'0 0.1
2014-Oct-20 18:32N 48°08' W 123°27'0 0.0
2014-Oct-20 17:32N 48°08' W 123°27'0 0.0
2014-Oct-20 16:32N 48°08' W 123°27'0 0.0
2014-Oct-20 15:32N 48°08' W 123°27'  

Dump ship's entire track history